Weather at Athen Helenikon Airport [CLOSED]

Public forecast

Using degrees Celsius for public forecast. Weather courtesy of forecast.io.

Closest aviation weather report (METAR) to Athen Helenikon Airport

Closest report is Eleftherios Venizelos International Airport, 10.5 nm (19.4 km) ENE. Retrieved 2021/04/17 11:50 UTC (14 minutes ago):

LGAV 171150Z 03016KT 9999 SCT030 19/11 Q1011 NOSIG

Closest aviation forecast (TAF) to Athen Helenikon Airport

Closest forecast is Eleftherios Venizelos International Airport, 10.5 nm (19.4 km) ENE. Retrieved 2021/04/17 12:12 UTC (0 seconds ago):

TAF TAF LGAV 171100Z 1712/1812 05020KT 9999 FEW020 SCT050 BECMG 1721/1723 VRB05KT BECMG 1810/1812 22012KT